Time;durP1;ratioP1;P1;durP2;ratioP2;P2;SDS_P1;SDS_P2;PMS_P1;PMS_P2;Temp;Humidity;BMP_temperature;BMP_pressure;BME280_temperature;BME280_humidity;BME280_pressure;Samples;Min_cycle;Max_cycle;Signal;HPM_P1;HPM_P2
2022/10/26 00:00:45;;;;;;;6.67;4.33;;;;;;;11.16;100.00;100102.19;5030537;28;20223;-70
2022/10/26 00:03:10;;;;;;;7.60;4.30;;;;;;;11.20;100.00;100105.41;5045977;28;20590;-71
2022/10/26 00:05:36;;;;;;;9.33;4.90;;;;;;;11.29;100.00;100102.31;5053023;28;20635;-70
2022/10/26 00:08:01;;;;;;;6.97;4.40;;;;;;;11.33;100.00;100098.66;5034812;28;20208;-70
2022/10/26 00:10:26;;;;;;;6.57;4.27;;;;;;;11.38;100.00;100100.97;5057548;28;20232;-70
2022/10/26 00:12:52;;;;;;;10.07;4.63;;;;;;;11.35;100.00;100095.97;5054299;28;20178;-70
2022/10/26 00:15:20;;;;;;;9.43;4.67;;;;;;;11.34;100.00;100096.88;5058398;28;20291;-72
2022/10/26 00:17:46;;;;;;;8.57;4.60;;;;;;;11.41;100.00;100098.19;5052396;28;20689;-70
2022/10/26 00:20:12;;;;;;;11.33;5.03;;;;;;;11.51;100.00;100085.59;5025694;28;20212;-69
2022/10/26 00:22:38;;;;;;;6.97;4.07;;;;;;;11.27;100.00;100086.13;5050073;28;20216;-71
2022/10/26 00:25:04;;;;;;;11.83;4.33;;;;;;;11.10;100.00;100079.34;5052642;28;20219;-70
2022/10/26 00:27:29;;;;;;;7.13;4.57;;;;;;;10.94;100.00;100081.97;5033969;28;20269;-70
2022/10/26 00:29:55;;;;;;;8.27;4.50;;;;;;;10.92;100.00;100084.63;5052374;28;20636;-70
2022/10/26 00:32:20;;;;;;;7.07;4.43;;;;;;;10.94;100.00;100081.97;5040716;28;20224;-70
2022/10/26 00:34:45;;;;;;;7.77;4.30;;;;;;;11.13;100.00;100084.34;5052205;28;20628;-70
2022/10/26 00:37:11;;;;;;;7.47;5.00;;;;;;;11.24;100.00;100078.59;5051812;28;20178;-69
2022/10/26 00:39:36;;;;;;;7.53;4.30;;;;;;;11.33;100.00;100095.25;5052267;28;20216;-70
2022/10/26 00:42:02;;;;;;;7.23;4.83;;;;;;;11.45;100.00;100102.28;5039890;28;20748;-70
2022/10/26 00:45:18;;;;;;;5.67;4.63;;;;;;;11.43;100.00;100106.66;5052209;28;20231;-72
2022/10/26 00:47:51;;;;;;;9.40;4.33;;;;;;;11.46;100.00;100104.75;5006014;28;20197;-70
2022/10/26 00:50:25;;;;;;;6.93;4.77;;;;;;;11.38;100.00;100108.69;5023828;28;20204;-70
2022/10/26 00:52:52;;;;;;;9.30;5.17;;;;;;;11.22;100.00;100108.72;5047951;28;20224;-71
2022/10/26 00:55:21;;;;;;;7.73;4.50;;;;;;;11.05;100.00;100120.81;5034279;28;20209;-71
2022/10/26 00:57:50;;;;;;;8.50;4.53;;;;;;;11.11;100.00;100112.75;5061921;28;20192;-71
2022/10/26 01:00:15;;;;;;;6.40;4.47;;;;;;;11.02;100.00;100102.16;5004384;28;20589;-69
2022/10/26 01:02:43;;;;;;;8.30;4.27;;;;;;;11.14;100.00;100094.53;5031873;28;20287;-70
2022/10/26 01:05:10;;;;;;;9.43;4.57;;;;;;;11.19;100.00;100088.28;5033737;28;20543;-70
2022/10/26 01:07:35;;;;;;;11.27;4.80;;;;;;;11.32;100.00;100084.09;5049719;28;20185;-70
2022/10/26 01:10:01;;;;;;;9.83;5.00;;;;;;;11.33;100.00;100079.81;5051971;28;20185;-70
2022/10/26 01:12:26;;;;;;;9.37;4.87;;;;;;;11.46;100.00;100073.00;5023974;28;20299;-70
2022/10/26 01:14:52;;;;;;;9.67;4.80;;;;;;;11.59;100.00;100079.09;5057873;28;20564;-70
2022/10/26 01:17:41;;;;;;;7.47;4.90;;;;;;;11.32;100.00;100084.09;5050992;28;20562;-71
2022/10/26 01:20:51;;;;;;;10.83;5.33;;;;;;;11.10;100.00;100105.94;5040778;28;20182;-69
2022/10/26 01:23:32;;;;;;;9.70;4.83;;;;;;;11.23;100.00;100103.50;5043418;28;20196;-70
2022/10/26 01:26:35;;;;;;;7.70;5.10;;;;;;;11.06;100.00;100094.16;5033401;28;20285;-71
2022/10/26 01:29:22;;;;;;;12.97;5.07;;;;;;;11.26;100.00;100087.03;4989641;28;20225;-70
2022/10/26 01:31:58;;;;;;;11.30;5.23;;;;;;;11.41;100.00;100077.59;4980149;28;20219;-71
2022/10/26 01:34:33;;;;;;;7.67;5.80;;;;;;;11.37;100.00;100076.13;4989082;28;20231;-70
2022/10/26 01:37:07;;;;;;;11.80;4.87;;;;;;;11.50;100.00;100068.50;4973141;28;20192;-70
2022/10/26 01:39:44;;;;;;;7.23;4.43;;;;;;;11.61;100.00;100069.53;4973493;28;20268;-72
2022/10/26 01:42:12;;;;;;;11.13;5.30;;;;;;;11.65;100.00;100057.28;4961395;28;20277;-70
2022/10/26 01:44:41;;;;;;;12.33;5.50;;;;;;;11.69;100.00;100068.25;4973557;28;20206;-70
2022/10/26 01:47:10;;;;;;;10.53;5.30;;;;;;;11.77;100.00;100064.28;4936519;28;20319;-75
2022/10/26 01:49:39;;;;;;;8.77;5.17;;;;;;;11.81;100.00;100071.81;4946396;28;20211;-70
2022/10/26 01:52:04;;;;;;;16.20;5.20;;;;;;;11.85;100.00;100073.31;4945243;28;20263;-69
2022/10/26 01:54:30;;;;;;;8.03;4.83;;;;;;;11.83;100.00;100068.22;4970106;28;20195;-72
2022/10/26 01:57:01;;;;;;;11.23;5.13;;;;;;;11.84;100.00;100067.31;4971634;28;20583;-70
2022/10/26 01:59:47;;;;;;;15.77;4.90;;;;;;;11.81;100.00;100066.66;4953827;28;20646;-70
2022/10/26 02:02:37;;;;;;;9.47;4.93;;;;;;;11.72;100.00;100063.75;4966683;28;20296;-72
2022/10/26 02:05:09;;;;;;;12.30;5.10;;;;;;;11.78;100.00;100062.53;5030085;28;20555;-72
2022/10/26 02:07:55;;;;;;;5.83;4.47;;;;;;;11.60;100.00;100059.31;5050445;28;20199;-72
2022/10/26 02:10:29;;;;;;;10.50;4.97;;;;;;;11.72;100.00;100062.88;5021963;28;20265;-73
2022/10/26 02:13:19;;;;;;;8.20;5.33;;;;;;;11.74;100.00;100068.78;5049391;28;20493;-73
2022/10/26 02:16:01;;;;;;;7.00;4.90;;;;;;;11.82;100.00;100063.16;5047001;28;20193;-73
2022/10/26 02:18:38;;;;;;;12.53;4.80;;;;;;;11.52;100.00;100061.50;5032123;28;20545;-73
2022/10/26 02:21:13;;;;;;;8.43;4.80;;;;;;;11.25;100.00;100065.63;5018798;28;20312;-72
2022/10/26 02:23:42;;;;;;;10.97;5.07;;;;;;;11.32;100.00;100055.78;5027156;28;20204;-72
2022/10/26 02:26:11;;;;;;;11.30;5.30;;;;;;;11.32;100.00;100055.78;5032727;28;20197;-72
2022/10/26 02:28:43;;;;;;;8.93;5.23;;;;;;;11.42;100.00;100050.91;5032341;28;20200;-72
2022/10/26 02:31:11;;;;;;;12.67;4.90;;;;;;;11.55;100.00;100044.13;5031603;28;20683;-72
2022/10/26 02:33:42;;;;;;;8.50;5.10;;;;;;;11.59;100.00;100042.19;5041305;28;20611;-72
2022/10/26 02:36:13;;;;;;;12.97;5.40;;;;;;;11.62;100.00;100040.28;5036373;28;20220;-73
2022/10/26 02:38:41;;;;;;;13.13;6.00;;;;;;;11.50;100.00;100035.00;5054278;28;20637;-73
2022/10/26 02:41:07;;;;;;;11.60;5.33;;;;;;;11.38;100.00;100037.38;5034693;28;20226;-72
2022/10/26 02:43:37;;;;;;;8.80;5.37;;;;;;;11.26;100.00;100038.09;5061688;28;20181;-72
2022/10/26 02:46:08;;;;;;;9.20;5.20;;;;;;;11.28;100.00;100044.00;5039522;28;20239;-74
2022/10/26 02:48:34;;;;;;;12.63;5.53;;;;;;;11.34;100.00;100029.94;5035725;28;20280;-72
2022/10/26 02:51:15;;;;;;;8.83;5.07;;;;;;;11.37;100.00;100030.56;5051433;28;20308;-72
2022/10/26 02:54:19;;;;;;;10.90;5.40;;;;;;;11.37;100.00;100033.16;5042776;28;20178;-73
2022/10/26 02:56:55;;;;;;;10.57;4.60;;;;;;;11.51;100.00;100032.34;5054928;28;20586;-73
2022/10/26 02:59:22;;;;;;;12.13;5.67;;;;;;;11.58;100.00;100033.63;5043287;28;20181;-73
2022/10/26 03:01:50;;;;;;;9.47;5.83;;;;;;;11.57;100.00;100042.28;5029653;28;20228;-75
2022/10/26 03:04:15;;;;;;;6.30;5.47;;;;;;;11.63;100.00;100038.50;5037693;28;20193;-73
2022/10/26 03:06:40;;;;;;;9.50;5.63;;;;;;;11.58;100.00;100040.53;5053640;28;20185;-73
2022/10/26 03:09:06;;;;;;;7.30;5.33;;;;;;;11.54;100.00;100051.94;5054559;28;20170;-73
2022/10/26 03:11:31;;;;;;;8.40;5.40;;;;;;;11.60;100.00;100054.97;5054950;28;20236;-73
2022/10/26 03:13:56;;;;;;;8.13;5.00;;;;;;;11.64;100.00;100053.06;5061857;28;20250;-73
2022/10/26 03:16:22;;;;;;;12.80;5.63;;;;;;;11.69;100.00;100052.78;5053150;28;20233;-72
2022/10/26 03:18:47;;;;;;;7.63;5.10;;;;;;;11.65;100.00;100048.72;5058714;28;20181;-72
2022/10/26 03:21:12;;;;;;;11.47;6.13;;;;;;;11.67;100.00;100041.72;5052799;28;20228;-73
2022/10/26 03:23:37;;;;;;;12.33;5.80;;;;;;;11.50;100.00;100056.47;5042744;28;20542;-73
2022/10/26 03:26:03;;;;;;;8.67;5.70;;;;;;;11.58;100.00;100058.56;5053350;28;20267;-74
2022/10/26 03:28:28;;;;;;;10.23;5.50;;;;;;;11.57;100.00;100064.63;5053279;28;20178;-73
2022/10/26 03:30:53;;;;;;;7.37;5.30;;;;;;;11.69;100.00;100068.25;5029151;28;20225;-73
2022/10/26 03:33:19;;;;;;;10.37;5.73;;;;;;;11.58;100.00;100072.28;5062271;28;20193;-73
2022/10/26 03:35:44;;;;;;;8.27;5.17;;;;;;;11.66;100.00;100069.25;5035513;28;20283;-73
2022/10/26 03:38:09;;;;;;;9.07;5.10;;;;;;;11.64;100.00;100068.50;5053046;28;20232;-72
2022/10/26 03:40:35;;;;;;;8.23;5.43;;;;;;;11.72;100.00;100063.75;5047831;28;20306;-72
2022/10/26 03:43:01;;;;;;;8.90;5.47;;;;;;;11.62;100.00;100062.59;5064015;28;20267;-75
2022/10/26 03:45:26;;;;;;;10.27;5.90;;;;;;;11.39;100.00;100064.00;5055478;28;20259;-72
2022/10/26 03:47:52;;;;;;;16.37;6.17;;;;;;;11.38;100.00;100046.88;5052630;28;20188;-72
2022/10/26 03:50:19;;;;;;;11.87;6.07;;;;;;;11.42;100.00;100044.03;5044587;28;20212;-72
2022/10/26 03:52:46;;;;;;;7.63;5.20;;;;;;;11.44;100.00;100039.59;5066610;28;20201;-73
2022/10/26 03:55:11;;;;;;;10.37;5.97;;;;;;;11.61;100.00;100040.38;5035044;28;20251;-72
2022/10/26 03:57:43;;;;;;;14.57;5.83;;;;;;;11.61;100.00;100042.94;5061779;28;20184;-73
2022/10/26 04:00:11;;;;;;;10.40;6.03;;;;;;;11.57;100.00;100054.34;5044235;28;20183;-71
2022/10/26 04:02:36;;;;;;;8.87;5.67;;;;;;;11.58;100.00;100054.22;5067307;28;20639;-72
2022/10/26 04:05:01;;;;;;;8.87;5.80;;;;;;;11.68;100.00;100051.94;5052977;28;20223;-72
2022/10/26 04:07:27;;;;;;;9.97;5.70;;;;;;;11.65;100.00;100048.72;5067917;28;20189;-72
2022/10/26 04:09:52;;;;;;;15.17;5.77;;;;;;;11.62;100.00;100047.16;5052574;28;20227;-72
2022/10/26 04:12:17;;;;;;;9.93;5.50;;;;;;;11.66;100.00;100045.22;5057741;28;20600;-71
2022/10/26 04:14:42;;;;;;;7.60;5.47;;;;;;;11.66;100.00;100046.06;5057527;28;20219;-73
2022/10/26 04:17:08;;;;;;;11.57;5.67;;;;;;;11.64;100.00;100037.59;5052002;28;20255;-73
2022/10/26 04:19:33;;;;;;;9.90;6.13;;;;;;;11.65;100.00;100040.97;5052864;28;20187;-73
2022/10/26 04:21:58;;;;;;;10.23;5.60;;;;;;;11.57;100.00;100036.31;5057026;28;20232;-73
2022/10/26 04:24:24;;;;;;;11.27;6.10;;;;;;;11.57;100.00;100039.72;5053054;28;20178;-72
2022/10/26 04:26:49;;;;;;;8.47;5.77;;;;;;;11.71;100.00;100038.88;5052075;28;20212;-72
2022/10/26 04:29:14;;;;;;;10.93;6.50;;;;;;;11.68;100.00;100028.75;5067790;28;20532;-72
2022/10/26 04:31:40;;;;;;;12.57;6.33;;;;;;;11.66;100.00;100024.63;5037369;28;20232;-72
2022/10/26 04:34:06;;;;;;;8.53;6.57;;;;;;;11.65;100.00;100033.25;5054749;28;20225;-72
2022/10/26 04:36:31;;;;;;;12.43;6.00;;;;;;;11.55;100.00;100036.41;5051895;28;20224;-71
2022/10/26 04:38:56;;;;;;;10.07;6.13;;;;;;;11.57;100.00;100032.00;5052297;28;20185;-72
2022/10/26 04:41:21;;;;;;;11.43;6.13;;;;;;;11.47;100.00;100025.72;5045713;28;20579;-71
2022/10/26 04:43:47;;;;;;;16.00;6.80;;;;;;;11.53;100.00;100015.03;5044153;28;20291;-72
2022/10/26 04:46:13;;;;;;;10.37;5.93;;;;;;;11.45;100.00;100025.00;5027323;28;20191;-72
2022/10/26 04:48:38;;;;;;;13.47;6.70;;;;;;;11.50;100.00;100035.00;5033859;28;20192;-73
2022/10/26 04:51:04;;;;;;;9.43;5.87;;;;;;;11.57;100.00;100024.25;5032232;28;20649;-72
2022/10/26 04:53:29;;;;;;;12.03;6.27;;;;;;;11.61;100.00;100015.41;5059785;28;20195;-72
2022/10/26 04:55:59;;;;;;;13.60;6.60;;;;;;;11.57;100.00;100036.31;5033132;28;20731;-71
2022/10/26 04:58:25;;;;;;;11.10;6.33;;;;;;;11.56;100.00;100043.22;5062565;28;20185;-71
2022/10/26 05:00:50;;;;;;;10.67;6.17;;;;;;;11.48;100.00;100034.28;5047243;28;20281;-71
2022/10/26 05:03:15;;;;;;;9.40;5.23;;;;;;;11.41;100.00;100037.22;5061120;28;20330;-72
2022/10/26 05:05:41;;;;;;;13.50;6.50;;;;;;;11.38;100.00;100039.97;5051594;28;20189;-71
2022/10/26 05:08:06;;;;;;;17.27;7.47;;;;;;;11.35;100.00;100045.31;5050663;28;20191;-71
2022/10/26 05:10:32;;;;;;;11.57;5.77;;;;;;;11.38;100.00;100049.44;5040535;28;20640;-72
2022/10/26 05:12:59;;;;;;;10.87;5.93;;;;;;;11.29;100.00;100045.66;5053040;28;20181;-71
2022/10/26 05:15:25;;;;;;;9.57;5.50;;;;;;;11.26;100.00;100038.97;5033514;28;20205;-71
2022/10/26 05:17:57;;;;;;;10.20;5.90;;;;;;;11.23;100.00;100040.88;5033088;28;20264;-71
2022/10/26 05:20:28;;;;;;;10.93;5.60;;;;;;;11.30;100.00;100040.44;5041172;28;20221;-72
2022/10/26 05:22:55;;;;;;;11.33;5.97;;;;;;;11.34;100.00;100043.66;5027629;28;20268;-71
2022/10/26 05:25:21;;;;;;;21.13;8.83;;;;;;;11.27;100.00;100044.91;5027179;28;20178;-71
2022/10/26 05:27:46;;;;;;;12.57;7.47;;;;;;;11.37;100.00;100042.63;5050788;28;20174;-71
2022/10/26 05:30:12;;;;;;;16.60;9.53;;;;;;;11.37;100.00;100047.78;5024339;28;20279;-71
2022/10/26 05:32:37;;;;;;;13.70;7.13;;;;;;;11.44;100.00;100046.50;5048622;28;20694;-71
2022/10/26 05:35:02;;;;;;;10.03;6.47;;;;;;;11.52;100.00;100035.75;5051163;28;20312;-71
2022/10/26 05:37:28;;;;;;;12.23;6.23;;;;;;;11.55;100.00;100036.41;5032657;28;20185;-73
2022/10/26 05:39:53;;;;;;;11.07;5.53;;;;;;;11.49;100.00;100041.91;5050404;28;20633;-71
2022/10/26 05:42:19;;;;;;;10.47;5.63;;;;;;;11.50;100.00;100043.56;5044783;28;20253;-72
2022/10/26 05:44:44;;;;;;;13.70;5.27;;;;;;;11.41;100.00;100038.94;5051010;28;20252;-71
2022/10/26 05:47:10;;;;;;;12.10;5.83;;;;;;;11.30;100.00;100045.56;5022852;28;20227;-71
2022/10/26 05:49:35;;;;;;;11.30;4.87;;;;;;;11.24;100.00;100045.13;5033085;28;20185;-71
2022/10/26 05:52:00;;;;;;;9.10;5.53;;;;;;;11.17;100.00;100044.63;5055902;28;20346;-71
2022/10/26 05:54:26;;;;;;;10.57;5.43;;;;;;;11.33;100.00;100048.91;5033879;28;20185;-71
2022/10/26 05:56:51;;;;;;;8.17;4.93;;;;;;;11.23;100.00;100048.59;5068738;28;20196;-71
2022/10/26 05:59:17;;;;;;;6.70;5.37;;;;;;;11.47;100.00;100054.03;5059623;28;20185;-71
2022/10/26 06:01:51;;;;;;;8.90;5.27;;;;;;;11.54;100.00;100060.50;5053763;28;20871;-71
2022/10/26 06:04:52;;;;;;;14.20;6.27;;;;;;;11.43;100.00;100063.69;5052851;28;20184;-71
2022/10/26 06:07:19;;;;;;;18.70;6.33;;;;;;;11.50;100.00;100073.63;5050991;28;20202;-72
2022/10/26 06:09:45;;;;;;;11.23;5.77;;;;;;;11.50;100.00;100066.75;5036943;28;20196;-72
2022/10/26 06:12:12;;;;;;;9.73;5.07;;;;;;;11.41;100.00;100077.59;5043508;28;20358;-71
2022/10/26 06:14:38;;;;;;;11.10;5.73;;;;;;;11.45;100.00;100079.09;5041928;28;20247;-72
2022/10/26 06:17:07;;;;;;;12.37;5.37;;;;;;;11.45;100.00;100085.06;5036540;28;20181;-71
2022/10/26 06:19:59;;;;;;;12.57;5.63;;;;;;;11.55;100.00;100093.06;5037035;28;20192;-71
2022/10/26 06:22:46;;;;;;;7.70;5.33;;;;;;;11.70;100.00;100101.66;5059713;28;20228;-71
2022/10/26 06:25:27;;;;;;;8.50;5.53;;;;;;;11.62;100.00;100099.53;5054857;28;20220;-71
2022/10/26 06:28:30;;;;;;;8.20;5.33;;;;;;;11.60;100.00;100103.94;5034450;28;20234;-71
2022/10/26 06:30:56;;;;;;;9.53;5.60;;;;;;;11.83;100.00;100106.06;5041709;28;20220;-72
2022/10/26 06:33:23;;;;;;;7.63;5.57;;;;;;;11.89;100.00;100119.41;5019868;28;20185;-73
2022/10/26 06:36:16;;;;;;;8.33;5.80;;;;;;;11.87;100.00;100113.53;5035676;28;20236;-71
2022/10/26 06:38:44;;;;;;;13.97;6.43;;;;;;;11.91;100.00;100116.75;5032242;28;20181;-72
2022/10/26 06:41:14;;;;;;;7.17;5.37;;;;;;;11.95;100.00;100113.06;5013364;28;20321;-72
2022/10/26 06:43:39;;;;;;;12.10;5.60;;;;;;;12.09;100.00;100117.41;5047093;28;20288;-72
2022/10/26 06:46:36;;;;;;;9.13;6.00;;;;;;;12.08;100.00;100114.03;5052453;28;20189;-72
2022/10/26 06:49:18;;;;;;;10.50;6.10;;;;;;;12.13;100.00;100115.47;5035778;28;20169;-72
2022/10/26 06:52:11;;;;;;;14.43;7.07;;;;;;;12.25;100.00;100128.47;5022522;28;21459;-72
2022/10/26 06:54:53;;;;;;;10.57;5.33;;;;;;;12.25;100.00;100122.47;5043313;28;20269;-73
2022/10/26 06:57:20;;;;;;;10.13;5.93;;;;;;;12.34;100.00;100119.34;5053512;28;20729;-73
2022/10/26 06:59:55;;;;;;;15.83;6.87;;;;;;;12.29;100.00;100117.94;5053578;28;20180;-72
2022/10/26 07:02:21;;;;;;;11.80;5.93;;;;;;;12.42;100.00;100121.44;5015082;28;20267;-73
2022/10/26 07:04:46;;;;;;;10.77;5.37;;;;;;;12.49;100.00;100133.03;5053429;28;20181;-72
2022/10/26 07:07:28;;;;;;;10.03;5.83;;;;;;;12.30;100.00;100130.75;5032243;28;20177;-72
2022/10/26 07:09:53;;;;;;;8.30;5.37;;;;;;;12.43;100.00;100130.84;5034853;28;20645;-73
2022/10/26 07:12:19;;;;;;;9.87;5.40;;;;;;;12.39;100.00;100134.50;5039659;28;20308;-74
2022/10/26 07:14:44;;;;;;;12.17;5.73;;;;;;;12.61;100.00;100149.50;5056145;28;20178;-74
2022/10/26 07:17:10;;;;;;;14.63;5.83;;;;;;;12.73;100.00;100148.72;5025847;28;20267;-72
2022/10/26 07:19:36;;;;;;;9.47;5.67;;;;;;;12.46;100.00;100145.31;5043814;28;20190;-70
2022/10/26 07:22:01;;;;;;;14.20;5.97;;;;;;;12.64;100.00;100145.91;5024286;28;20587;-59
2022/10/26 07:24:27;;;;;;;10.00;6.03;;;;;;;12.59;100.00;100146.19;5043224;28;20204;-60
2022/10/26 07:26:54;;;;;;;10.57;5.93;;;;;;;12.58;100.00;100154.88;5052543;28;20566;-71
2022/10/26 07:29:19;;;;;;;10.97;5.97;;;;;;;12.54;100.00;100153.38;5035116;28;20277;-71
2022/10/26 07:31:44;;;;;;;14.60;6.10;;;;;;;12.57;100.00;100161.75;5007927;28;20293;-71
2022/10/26 07:34:10;;;;;;;9.43;5.70;;;;;;;12.65;100.00;100166.47;5047097;28;20229;-71
2022/10/26 07:36:38;;;;;;;11.83;5.77;;;;;;;12.77;100.00;100170.00;5052796;28;20209;-71
2022/10/26 07:39:04;;;;;;;6.80;5.27;;;;;;;12.88;100.00;100164.19;5053183;28;20561;-72
2022/10/26 07:41:29;;;;;;;13.03;6.20;;;;;;;12.86;100.00;100166.88;5042254;28;20263;-72
2022/10/26 07:43:55;;;;;;;10.07;5.43;;;;;;;13.10;100.00;100173.13;5032322;28;20195;-71
2022/10/26 07:46:20;;;;;;;11.43;6.00;;;;;;;13.23;100.00;100172.28;5061628;28;20554;-72
2022/10/26 07:48:45;;;;;;;14.27;7.00;;;;;;;13.29;100.00;100175.38;5053155;28;20189;-72
2022/10/26 07:51:12;;;;;;;10.43;7.23;;;;;;;13.21;100.00;100178.47;5042358;28;20719;-71
2022/10/26 07:53:37;;;;;;;13.23;6.63;;;;;;;13.25;100.00;100167.00;5047502;28;20181;-71
2022/10/26 07:56:02;;;;;;;8.77;6.13;;;;;;;13.40;100.00;100183.28;5052967;28;20212;-78
2022/10/26 07:58:28;;;;;;;13.20;6.63;;;;;;;13.36;100.00;100177.47;5052983;28;20181;-71
2022/10/26 08:00:54;;;;;;;7.87;5.80;;;;;;;13.51;100.00;100188.56;5049433;28;20239;-72
2022/10/26 08:03:20;;;;;;;11.17;6.37;;;;;;;13.66;100.00;100189.31;5036780;28;20178;-71
2022/10/26 08:05:49;;;;;;;10.10;5.67;;;;;;;13.71;100.00;100187.25;5052800;28;20220;-71
2022/10/26 08:08:18;;;;;;;10.17;5.20;;;;;;;13.66;100.00;100181.56;5029803;28;20194;-73
2022/10/26 08:10:44;;;;;;;7.70;4.63;;;;;;;13.83;100.00;100188.22;5015496;28;20319;-72
2022/10/26 08:13:10;;;;;;;5.97;4.63;;;;;;;13.86;100.00;100185.41;5033762;28;20177;-71
2022/10/26 08:15:36;;;;;;;8.13;5.13;;;;;;;14.08;100.00;100189.16;5030556;28;20201;-71
2022/10/26 08:18:01;;;;;;;9.70;4.70;;;;;;;13.86;100.00;100188.00;5052225;28;20189;-71
2022/10/26 08:20:26;;;;;;;7.57;4.27;;;;;;;13.81;100.00;100186.66;5041966;28;20240;-72
2022/10/26 08:22:54;;;;;;;7.93;4.00;;;;;;;13.76;100.00;100183.56;5051491;28;20578;-72
2022/10/26 08:25:19;;;;;;;7.53;4.13;;;;;;;14.08;100.00;100176.22;5052912;28;20177;-72
2022/10/26 08:27:45;;;;;;;10.33;4.93;;;;;;;14.26;100.00;100183.66;5051872;28;20189;-72
2022/10/26 08:30:11;;;;;;;7.57;4.30;;;;;;;14.69;100.00;100191.03;5043023;28;20260;-72
2022/10/26 08:32:36;;;;;;;8.83;4.00;;;;;;;15.03;100.00;100183.44;5051906;28;20181;-72
2022/10/26 08:35:01;;;;;;;8.07;3.50;;;;;;;14.99;100.00;100187.22;5052438;28;20225;-72
2022/10/26 08:37:26;;;;;;;6.07;3.97;;;;;;;14.90;100.00;100193.88;5051998;28;20632;-72
2022/10/26 08:39:52;;;;;;;7.73;4.43;;;;;;;15.15;100.00;100176.56;5052098;28;20188;-72
2022/10/26 08:42:32;;;;;;;9.53;3.90;;;;;;;15.15;100.00;100195.53;5057207;28;20216;-72
2022/10/26 08:45:24;;;;;;;7.83;4.20;;;;;;;15.48;100.00;100200.97;5035988;28;20651;-72
2022/10/26 08:47:55;;;;;;;8.87;3.50;;;;;;;15.81;100.00;100192.44;5009605;28;20193;-72
2022/10/26 08:50:26;;;;;;;6.67;3.13;;;;;;;16.12;100.00;100187.56;5025963;28;20545;-73
2022/10/26 08:53:10;;;;;;;8.37;3.80;;;;;;;15.95;100.00;100190.59;5064634;28;20202;-73
2022/10/26 08:55:58;;;;;;;5.67;3.33;;;;;;;16.24;100.00;100193.56;5033996;28;20204;-73
2022/10/26 08:58:30;;;;;;;12.03;3.90;;;;;;;16.79;100.00;100195.38;5044582;28;20268;-73
2022/10/26 09:00:55;;;;;;;3.97;3.03;;;;;;;16.96;100.00;100195.88;5031299;28;20235;-72
2022/10/26 09:03:21;;;;;;;4.80;3.23;;;;;;;17.25;100.00;100207.34;5060312;28;20617;-72
2022/10/26 09:06:05;;;;;;;8.20;3.50;;;;;;;17.29;100.00;100220.91;5051889;28;20252;-72
2022/10/26 09:08:35;;;;;;;7.40;3.47;;;;;;;17.47;100.00;100220.34;5051287;28;20192;-72
2022/10/26 09:11:31;;;;;;;5.33;3.03;;;;;;;17.82;100.00;100216.63;5049013;28;20290;-71
2022/10/26 09:14:22;;;;;;;5.57;2.80;;;;;;;18.16;100.00;100225.06;5047382;28;20172;-71
2022/10/26 09:17:19;;;;;;;7.03;3.80;;;;;;;19.46;100.00;100224.25;5033241;28;20213;-71
2022/10/26 09:20:01;;;;;;;4.93;3.10;;;;;;;20.86;100.00;100217.44;5051951;28;20491;-71
2022/10/26 09:22:40;;;;;;;5.40;2.70;;;;;;;21.30;96.27;100229.81;5040721;28;20665;-71
2022/10/26 09:25:28;;;;;;;9.27;2.90;;;;;;;21.78;93.65;100240.84;5033574;28;20655;-71
2022/10/26 09:28:00;;;;;;;8.10;2.90;;;;;;;23.26;83.84;100237.16;5033143;28;20181;-72
2022/10/26 09:30:25;;;;;;;5.17;2.63;;;;;;;24.18;72.98;100236.91;5015579;28;20616;-71
2022/10/26 09:32:58;;;;;;;5.47;2.78;;;;;;;25.52;63.51;100235.97;5045456;28;20262;-71
2022/10/26 09:35:41;;;;;;;12.18;2.80;;;;;;;26.58;55.27;100241.06;5033104;28;20225;-72
2022/10/26 09:38:24;;;;;;;6.68;3.03;;;;;;;24.54;64.19;100249.56;5050662;28;20192;-71
2022/10/26 09:40:55;;;;;;;6.78;2.60;;;;;;;26.48;55.95;100251.09;5047422;28;20224;-71
2022/10/26 09:43:49;;;;;;;7.80;3.28;;;;;;;26.70;52.00;100255.41;5042341;28;20662;-71
2022/10/26 09:46:40;;;;;;;7.82;2.95;;;;;;;27.90;47.45;100248.75;5046562;28;20315;-78
2022/10/26 09:49:09;;;;;;;4.97;2.67;;;;;;;29.59;42.25;100252.53;5032554;28;20568;-72
2022/10/26 09:51:37;;;;;;;10.25;3.33;;;;;;;27.38;45.36;100249.81;5053202;28;20270;-71
2022/10/26 09:54:18;;;;;;;5.25;2.33;;;;;;;28.95;43.67;100261.84;5036446;28;20174;-72
2022/10/26 09:56:48;;;;;;;6.00;3.00;;;;;;;29.51;41.75;100260.72;5034094;28;20245;-73
2022/10/26 09:59:17;;;;;;;3.83;2.25;;;;;;;28.79;42.80;100260.38;5061729;28;20207;-71
2022/10/26 10:01:42;;;;;;;4.65;2.55;;;;;;;28.06;46.13;100271.47;5036574;28;20239;-70
2022/10/26 10:04:18;;;;;;;4.28;2.20;;;;;;;26.93;49.35;100269.50;5053616;28;20181;-70
2022/10/26 10:06:45;;;;;;;3.33;2.40;;;;;;;26.32;54.53;100274.06;5032439;28;20640;-71
2022/10/26 10:09:22;;;;;;;7.43;2.85;;;;;;;24.94;62.03;100268.78;5033007;28;20177;-70
2022/10/26 10:11:54;;;;;;;9.02;2.75;;;;;;;23.08;82.76;100272.19;5054328;28;20232;-70
2022/10/26 10:14:23;;;;;;;6.82;2.88;;;;;;;21.83;93.00;100279.63;5040364;28;20183;-71
2022/10/26 10:17:11;;;;;;;5.38;2.65;;;;;;;20.89;100.00;100279.91;5032299;28;20201;-72
2022/10/26 10:19:37;;;;;;;9.23;2.72;;;;;;;20.91;100.00;100278.00;5036637;28;20194;-71
2022/10/26 10:22:14;;;;;;;11.20;2.53;;;;;;;20.48;100.00;100287.25;5038671;28;20220;-74
2022/10/26 10:24:42;;;;;;;5.70;2.90;;;;;;;20.44;100.00;100283.25;5050970;28;20256;-70
2022/10/26 10:27:16;;;;;;;6.20;2.50;;;;;;;19.95;100.00;100284.22;5031805;28;20702;-70
2022/10/26 10:29:48;;;;;;;7.23;2.77;;;;;;;19.76;100.00;100299.88;5050679;28;20219;-70
2022/10/26 10:32:15;;;;;;;4.87;2.50;;;;;;;19.37;100.00;100290.25;5056005;28;20278;-71
2022/10/26 10:34:40;;;;;;;9.43;3.00;;;;;;;19.20;100.00;100294.34;5050415;28;20235;-70
2022/10/26 10:37:05;;;;;;;4.50;2.80;;;;;;;19.02;100.00;100295.00;5050287;28;20221;-70
2022/10/26 10:39:31;;;;;;;6.63;2.97;;;;;;;18.88;100.00;100296.19;5050808;28;20198;-70
2022/10/26 10:41:56;;;;;;;6.77;2.67;;;;;;;18.74;100.00;100301.75;5055326;28;20707;-70
2022/10/26 10:44:26;;;;;;;6.60;2.97;;;;;;;18.30;100.00;100307.19;5051135;28;20380;-70
2022/10/26 10:47:18;;;;;;;4.63;2.77;;;;;;;18.49;100.00;100305.66;5042614;28;20174;-70
2022/10/26 10:49:51;;;;;;;6.00;2.73;;;;;;;18.76;100.00;100312.06;5032707;28;20193;-71
2022/10/26 10:52:32;;;;;;;6.77;2.33;;;;;;;18.56;100.00;100309.38;5038881;28;20247;-70
2022/10/26 10:55:17;;;;;;;5.27;3.23;;;;;;;18.92;100.00;100311.59;5034273;28;20204;-70
2022/10/26 10:58:04;;;;;;;9.87;3.10;;;;;;;19.16;100.00;100317.28;5045906;28;20267;-70
2022/10/26 11:00:34;;;;;;;4.33;2.77;;;;;;;19.63;100.00;100308.00;5007103;28;20232;-70
2022/10/26 11:03:16;;;;;;;9.13;2.97;;;;;;;19.69;100.00;100317.88;5048291;28;20355;-76
2022/10/26 11:06:09;;;;;;;12.70;3.23;;;;;;;19.72;100.00;100325.44;5035008;28;20750;-57
2022/10/26 11:08:46;;;;;;;5.33;2.80;;;;;;;19.57;100.00;100326.81;5052194;28;20247;-58
2022/10/26 11:11:43;;;;;;;5.17;3.13;;;;;;;19.26;100.00;100325.13;5043004;28;20264;-58
2022/10/26 11:14:25;;;;;;;6.13;2.70;;;;;;;19.21;100.00;100326.50;5047482;28;20913;-58
2022/10/26 11:17:05;;;;;;;4.87;3.30;;;;;;;19.57;100.00;100327.63;5041260;28;20217;-57
2022/10/26 11:19:56;;;;;;;6.93;2.90;;;;;;;19.59;100.00;100324.91;5053024;28;20186;-74
2022/10/26 11:22:34;;;;;;;10.17;3.33;;;;;;;19.55;100.00;100329.56;5039120;28;20541;-71
2022/10/26 11:25:06;;;;;;;12.77;2.87;;;;;;;19.45;100.00;100323.50;5034966;28;20265;-73
2022/10/26 11:28:15;;;;;;;10.30;3.03;;;;;;;19.31;100.00;100329.94;5034204;28;20182;-71
2022/10/26 11:30:48;;;;;;;6.73;2.70;;;;;;;19.42;100.00;100329.81;4923007;28;20217;-72
2022/10/26 11:33:25;;;;;;;5.07;2.67;;;;;;;19.47;100.00;100322.41;4933601;29;20719;-71